createdAt,value
2016-11-18T00:00:18.498Z,21.62
2016-11-18T00:01:31.466Z,21.66
2016-11-18T00:02:44.981Z,21.67
2016-11-18T00:03:57.071Z,21.66
2016-11-18T00:05:10.200Z,21.58
2016-11-18T00:06:23.260Z,21.74
2016-11-18T00:07:36.468Z,21.63
2016-11-18T00:08:48.944Z,21.73
2016-11-18T00:10:02.082Z,21.65
2016-11-18T00:11:14.564Z,21.66
2016-11-18T00:12:27.134Z,21.53
2016-11-18T00:13:40.323Z,21.6
2016-11-18T00:14:53.746Z,21.59
2016-11-18T00:16:06.802Z,21.62
2016-11-18T00:17:19.258Z,21.6
2016-11-18T00:18:32.866Z,21.53
2016-11-18T00:19:44.770Z,21.55
2016-11-18T00:20:57.356Z,21.58
2016-11-18T00:22:09.942Z,21.63
2016-11-18T00:23:23.017Z,21.58
2016-11-18T00:24:35.815Z,21.69
2016-11-18T00:25:47.784Z,21.69
2016-11-18T00:27:00.352Z,21.66
2016-11-18T00:28:12.974Z,21.74
2016-11-18T00:29:26.012Z,21.69
2016-11-18T00:30:39.658Z,21.66
2016-11-18T00:31:52.773Z,21.6
2016-11-18T00:33:05.842Z,21.6
2016-11-18T00:34:18.423Z,21.55
2016-11-18T00:35:30.882Z,21.69
2016-11-18T00:36:44.425Z,21.59
2016-11-18T00:37:57.547Z,21.65
2016-11-18T00:39:11.127Z,21.65
2016-11-18T00:40:23.580Z,21.62
2016-11-18T00:41:36.603Z,21.67
2016-11-18T00:42:48.599Z,21.77
2016-11-18T00:44:01.179Z,21.67
2016-11-18T00:45:14.354Z,21.63
2016-11-18T00:46:26.448Z,21.78
2016-11-18T00:47:39.142Z,21.73
2016-11-18T00:48:52.260Z,21.78
2016-11-18T00:50:05.814Z,21.75
2016-11-18T00:51:19.314Z,21.8
2016-11-18T00:52:32.922Z,21.77
2016-11-18T00:53:46.121Z,21.81
2016-11-18T00:54:59.151Z,21.88
2016-11-18T00:56:12.681Z,21.9
2016-11-18T00:57:25.232Z,21.91
2016-11-18T00:58:38.295Z,21.97
2016-11-18T00:59:51.339Z,22.01
2016-11-18T01:01:03.816Z,21.88
2016-11-18T01:02:15.772Z,21.84
2016-11-18T01:03:29.356Z,21.88
2016-11-18T01:04:42.375Z,21.78
2016-11-18T01:05:54.947Z,21.8
2016-11-18T01:07:08.533Z,21.81
2016-11-18T01:08:21.010Z,21.81
2016-11-18T01:09:33.465Z,21.75
2016-11-18T01:10:46.984Z,21.81
2016-11-18T01:11:59.465Z,21.78
2016-11-18T01:13:12.444Z,21.8
2016-11-18T01:14:24.986Z,21.77
2016-11-18T01:15:38.041Z,21.82
2016-11-18T01:16:50.591Z,21.94
2016-11-18T01:18:04.171Z,21.91
2016-11-18T01:19:16.102Z,21.88
2016-11-18T01:20:28.546Z,21.96
2016-11-18T01:21:41.599Z,21.93
2016-11-18T01:22:54.035Z,21.75
2016-11-18T01:24:06.506Z,21.78
2016-11-18T01:25:19.506Z,21.82
2016-11-18T01:26:32.533Z,21.8
2016-11-18T01:27:46.089Z,21.73
2016-11-18T01:28:59.622Z,21.67
2016-11-18T01:30:12.682Z,21.73
2016-11-18T01:31:25.193Z,21.75
2016-11-18T01:32:38.239Z,21.71
2016-11-18T01:33:50.767Z,21.59
2016-11-18T01:35:04.299Z,21.75
2016-11-18T01:36:15.673Z,21.74
2016-11-18T01:37:28.125Z,21.62
2016-11-18T01:38:41.146Z,21.6
2016-11-18T01:39:54.610Z,21.73
2016-11-18T01:41:07.600Z,21.66
2016-11-18T01:42:20.031Z,21.59
2016-11-18T01:43:33.567Z,21.55
2016-11-18T01:44:47.110Z,21.6
2016-11-18T01:46:00.163Z,21.65
2016-11-18T01:47:12.768Z,21.69
2016-11-18T01:48:26.359Z,21.58
2016-11-18T01:49:38.334Z,21.6
2016-11-18T01:50:51.386Z,21.63
2016-11-18T01:52:03.373Z,21.69
2016-11-18T01:53:16.867Z,21.69
2016-11-18T01:54:29.863Z,21.56
2016-11-18T01:55:43.499Z,21.75
2016-11-18T01:56:55.973Z,21.66
2016-11-18T01:58:07.385Z,21.6
2016-11-18T01:59:19.880Z,21.67
2016-11-18T02:02:16.993Z,21.67
2016-11-18T02:03:29.961Z,21.67
2016-11-18T02:04:43.526Z,21.58
2016-11-18T02:05:56.554Z,21.62
2016-11-18T02:07:09.566Z,21.69
2016-11-18T02:08:22.552Z,21.66
2016-11-18T02:09:35.555Z,21.51
2016-11-18T02:10:48.575Z,21.63
2016-11-18T02:12:01.628Z,21.58
2016-11-18T02:13:14.653Z,21.69
2016-11-18T02:14:28.190Z,21.69
2016-11-18T02:15:41.172Z,21.63
2016-11-18T02:16:54.682Z,21.66
2016-11-18T02:18:07.199Z,21.6
2016-11-18T02:19:20.220Z,21.66
2016-11-18T02:20:32.686Z,21.58
2016-11-18T02:21:45.742Z,21.58
2016-11-18T02:22:57.169Z,21.58
2016-11-18T02:24:10.257Z,21.53
2016-11-18T02:25:22.236Z,21.6
2016-11-18T02:26:34.232Z,21.53
2016-11-18T02:27:47.207Z,21.55
2016-11-18T02:29:00.268Z,21.55
2016-11-18T02:30:11.683Z,21.45
2016-11-18T02:31:23.683Z,21.58
2016-11-18T02:32:36.171Z,21.56
2016-11-18T02:33:48.201Z,21.44
2016-11-18T02:35:01.219Z,21.58
2016-11-18T02:36:14.216Z,21.48
2016-11-18T02:37:27.753Z,21.6
2016-11-18T02:38:40.213Z,21.58
2016-11-18T02:39:51.621Z,21.58
2016-11-18T02:41:04.662Z,21.48
2016-11-18T02:42:17.729Z,21.47
2016-11-18T02:43:29.138Z,21.53
2016-11-18T02:44:41.089Z,21.55
2016-11-18T02:45:54.628Z,21.45
2016-11-18T02:47:07.631Z,21.43
2016-11-18T02:48:20.154Z,21.44
2016-11-18T02:49:32.647Z,21.45
2016-11-18T02:50:44.088Z,21.47
2016-11-18T02:51:56.588Z,21.51
2016-11-18T02:53:09.088Z,21.44
2016-11-18T02:54:21.572Z,21.5
2016-11-18T02:55:33.503Z,21.53
2016-11-18T02:56:46.560Z,21.51
2016-11-18T02:57:59.629Z,21.56
2016-11-18T02:59:11.583Z,21.48
2016-11-18T03:00:24.602Z,21.43
2016-11-18T03:01:37.598Z,21.45
2016-11-18T03:03:22.308Z,21.37
2016-11-18T03:04:34.831Z,21.28
2016-11-18T03:05:47.856Z,21.29
2016-11-18T03:07:01.371Z,21.3
2016-11-18T03:08:14.342Z,21.35
2016-11-18T03:09:27.896Z,21.34
2016-11-18T03:10:41.476Z,21.25
2016-11-18T03:11:54.455Z,21.32
2016-11-18T03:13:06.937Z,21.41
2016-11-18T03:14:19.894Z,21.28
2016-11-18T03:15:32.918Z,21.35
2016-11-18T03:17:17.684Z,21.4
2016-11-18T03:18:31.171Z,21.41
2016-11-18T03:19:44.721Z,21.47
2016-11-18T03:20:58.325Z,21.53
2016-11-18T03:22:11.852Z,21.43
2016-11-18T03:23:24.375Z,21.45
2016-11-18T03:24:37.454Z,21.47
2016-11-18T03:26:21.567Z,21.47
2016-11-18T03:27:35.207Z,21.45
2016-11-18T03:28:48.668Z,21.55
2016-11-18T03:30:01.710Z,21.5
2016-11-18T03:31:14.729Z,21.55
2016-11-18T03:32:29.021Z,21.47
2016-11-18T03:33:42.540Z,21.45
2016-11-18T03:34:56.067Z,21.5
2016-11-18T03:36:09.073Z,21.44
2016-11-18T03:37:22.606Z,21.47
2016-11-18T03:38:35.580Z,21.45
2016-11-18T03:40:19.701Z,21.5
2016-11-18T03:42:04.311Z,21.5
2016-11-18T03:43:17.301Z,21.43
2016-11-18T03:44:29.861Z,21.44
2016-11-18T03:45:43.414Z,21.45
2016-11-18T03:46:55.428Z,21.47
2016-11-18T03:48:08.515Z,21.53
2016-11-18T03:49:21.589Z,21.48
2016-11-18T03:50:34.603Z,21.44
2016-11-18T03:51:48.156Z,21.55
2016-11-18T03:53:01.668Z,21.45
2016-11-18T03:54:15.225Z,21.56
2016-11-18T03:55:28.758Z,21.58
2016-11-18T03:56:42.299Z,21.58
2016-11-18T03:57:55.293Z,21.44
2016-11-18T03:59:08.295Z,21.48
2016-11-18T04:00:21.790Z,21.51
2016-11-18T04:01:35.309Z,21.44
2016-11-18T04:02:48.850Z,21.5
2016-11-18T04:04:01.921Z,21.41
2016-11-18T04:05:15.529Z,21.43
2016-11-18T04:06:29.074Z,21.48
2016-11-18T04:07:42.076Z,21.43
2016-11-18T04:08:54.522Z,21.44
2016-11-18T04:10:08.042Z,21.51
2016-11-18T04:13:05.724Z,21.51
2016-11-18T04:14:19.303Z,21.44
2016-11-18T04:15:32.234Z,21.4
2016-11-18T04:16:45.235Z,21.41
2016-11-18T04:17:57.713Z,21.38
2016-11-18T04:19:10.729Z,21.43
2016-11-18T04:20:24.326Z,21.47
2016-11-18T04:21:37.303Z,21.44
2016-11-18T04:22:49.760Z,21.53
2016-11-18T04:24:03.360Z,21.45
2016-11-18T04:25:16.857Z,21.48
2016-11-18T04:26:29.332Z,21.48
2016-11-18T04:27:42.362Z,21.47
2016-11-18T04:28:55.952Z,21.58
2016-11-18T04:30:07.947Z,21.56
2016-11-18T04:31:21.551Z,21.5
2016-11-18T04:32:35.167Z,21.6
2016-11-18T04:33:48.782Z,21.58
2016-11-18T04:35:01.759Z,21.6
2016-11-18T04:36:15.287Z,21.59
2016-11-18T04:37:28.855Z,21.66
2016-11-18T04:38:41.835Z,21.6
2016-11-18T04:39:54.959Z,21.6
2016-11-18T04:41:06.886Z,21.5
2016-11-18T04:42:20.418Z,21.6
2016-11-18T04:43:33.457Z,21.45
2016-11-18T04:44:45.930Z,21.44
2016-11-18T04:45:58.961Z,21.47
2016-11-18T04:47:11.974Z,21.5
2016-11-18T04:48:24.987Z,21.5
2016-11-18T04:49:37.957Z,21.5
2016-11-18T04:50:51.013Z,21.47
2016-11-18T04:52:03.556Z,21.51
2016-11-18T04:53:17.060Z,21.45
2016-11-18T04:54:30.136Z,21.44
2016-11-18T04:55:42.640Z,21.45
2016-11-18T04:56:55.614Z,21.48
2016-11-18T04:58:09.218Z,21.45
2016-11-18T04:59:22.197Z,21.47
2016-11-18T05:00:35.202Z,21.48
2016-11-18T05:01:48.764Z,21.44
2016-11-18T05:03:02.354Z,21.53
2016-11-18T05:04:15.375Z,21.44
2016-11-18T05:05:28.991Z,21.53
2016-11-18T05:06:42.543Z,21.58
2016-11-18T05:07:55.595Z,21.6
2016-11-18T05:09:09.156Z,21.55
2016-11-18T05:10:22.749Z,21.58
2016-11-18T05:11:36.226Z,21.55
2016-11-18T05:12:49.256Z,21.53
2016-11-18T05:14:02.799Z,21.44
2016-11-18T05:15:15.817Z,21.47
2016-11-18T05:16:29.369Z,21.41
2016-11-18T05:17:42.398Z,21.48
2016-11-18T05:18:55.418Z,21.5
2016-11-18T05:20:08.446Z,21.56
2016-11-18T05:21:22.052Z,21.47
2016-11-18T05:22:35.609Z,21.6
2016-11-18T05:23:49.242Z,21.5
2016-11-18T05:25:02.737Z,21.55
2016-11-18T05:26:15.884Z,21.58
2016-11-18T05:27:28.352Z,21.63
2016-11-18T05:28:41.453Z,21.6
2016-11-18T05:29:54.495Z,21.56
2016-11-18T05:31:07.508Z,21.59
2016-11-18T05:32:21.050Z,21.67
2016-11-18T05:33:34.663Z,21.66
2016-11-18T05:34:47.734Z,21.67
2016-11-18T05:36:01.381Z,21.67
2016-11-18T05:37:14.456Z,21.69
2016-11-18T05:38:27.989Z,21.65
2016-11-18T05:39:41.009Z,21.73
2016-11-18T05:40:54.533Z,21.73
2016-11-18T05:42:07.582Z,21.8
2016-11-18T05:43:21.207Z,21.65
2016-11-18T05:44:34.801Z,21.66
2016-11-18T05:45:48.419Z,21.73
2016-11-18T05:47:01.523Z,21.69
2016-11-18T05:48:14.639Z,21.65
2016-11-18T05:49:28.263Z,21.67
2016-11-18T05:50:41.270Z,21.69
2016-11-18T05:51:54.875Z,21.66
2016-11-18T05:53:08.395Z,21.6
2016-11-18T05:54:21.951Z,21.73
2016-11-18T05:55:35.024Z,21.63
2016-11-18T05:56:48.169Z,21.63
2016-11-18T05:58:01.196Z,21.71
2016-11-18T05:59:14.805Z,21.74
2016-11-18T06:00:28.427Z,21.73
2016-11-18T06:01:41.457Z,21.65
2016-11-18T06:02:54.505Z,21.65
2016-11-18T06:04:08.059Z,21.67
2016-11-18T06:05:21.020Z,21.67
2016-11-18T06:06:34.554Z,21.69
2016-11-18T06:07:46.566Z,21.67
2016-11-18T06:09:00.115Z,21.69
2016-11-18T06:10:12.550Z,21.73
2016-11-18T06:11:25.619Z,21.71
2016-11-18T06:12:38.063Z,21.74
2016-11-18T06:13:50.604Z,21.73
2016-11-18T06:15:03.627Z,21.69
2016-11-18T06:16:16.655Z,21.71
2016-11-18T06:17:30.227Z,21.69
2016-11-18T06:18:43.271Z,21.74
2016-11-18T06:19:56.282Z,21.63
2016-11-18T06:21:09.354Z,21.63
2016-11-18T06:22:21.865Z,21.56
2016-11-18T06:23:34.874Z,21.48
2016-11-18T06:24:47.276Z,21.47
2016-11-18T06:27:45.443Z,21.44
2016-11-18T06:28:58.497Z,21.44
2016-11-18T06:30:11.485Z,21.44
2016-11-18T06:31:24.016Z,21.44
2016-11-18T06:32:37.504Z,21.44
2016-11-18T06:33:50.040Z,21.37
2016-11-18T06:35:03.585Z,21.32
2016-11-18T06:36:16.617Z,21.25
2016-11-18T06:37:29.682Z,21.22
2016-11-18T06:38:43.250Z,21.16
2016-11-18T06:39:56.264Z,21.07
2016-11-18T06:41:09.317Z,21.18
2016-11-18T06:42:22.341Z,21.01
2016-11-18T06:43:34.869Z,20.95
2016-11-18T06:44:47.358Z,20.89
2016-11-18T06:46:00.971Z,20.73
2016-11-18T06:47:14.489Z,20.3
2016-11-18T06:48:27.969Z,20.07
2016-11-18T06:49:40.435Z,19.75
2016-11-18T06:50:53.990Z,19.6
2016-11-18T06:52:06.446Z,19.31
2016-11-18T06:53:19.966Z,19.22
2016-11-18T06:54:33.001Z,19.23
2016-11-18T06:55:46.014Z,19.24
2016-11-18T06:56:58.505Z,19.2
2016-11-18T06:58:12.048Z,19.17
2016-11-18T06:59:25.613Z,19.16
2016-11-18T07:00:38.123Z,19.12
2016-11-18T07:01:51.131Z,19
2016-11-18T07:03:04.751Z,18.89
2016-11-18T07:04:17.770Z,18.81
2016-11-18T07:05:31.320Z,18.67
2016-11-18T07:06:44.901Z,18.76
2016-11-18T07:07:57.888Z,18.7
2016-11-18T07:09:10.862Z,18.85
2016-11-18T07:10:24.383Z,18.76
2016-11-18T07:11:36.860Z,18.75
2016-11-18T07:12:50.383Z,18.71
2016-11-18T07:14:03.992Z,18.66
2016-11-18T07:15:16.982Z,18.6
2016-11-18T07:16:29.974Z,18.68
2016-11-18T07:17:42.458Z,18.64
2016-11-18T07:18:55.957Z,18.66
2016-11-18T07:20:09.017Z,18.67
2016-11-18T07:21:22.595Z,18.66
2016-11-18T07:22:35.668Z,18.57
2016-11-18T07:23:48.162Z,18.6
2016-11-18T07:25:01.740Z,18.63
2016-11-18T07:26:15.198Z,18.56
2016-11-18T07:27:28.236Z,18.52
2016-11-18T07:28:41.784Z,18.52
2016-11-18T07:29:55.331Z,18.48
2016-11-18T07:31:39.940Z,18.51
2016-11-18T07:32:52.945Z,18.51
2016-11-18T07:34:06.455Z,18.58
2016-11-18T07:35:19.436Z,18.56
2016-11-18T07:36:32.986Z,18.46
2016-11-18T07:37:45.987Z,18.42
2016-11-18T07:38:59.609Z,18.51
2016-11-18T07:40:12.109Z,18.41
2016-11-18T07:41:25.119Z,18.34
2016-11-18T07:42:38.186Z,18.39
2016-11-18T07:43:51.228Z,18.2
2016-11-18T07:45:04.260Z,18.12
2016-11-18T07:46:17.209Z,18.05
2016-11-18T07:47:30.256Z,17.99
2016-11-18T07:48:43.801Z,18.01
2016-11-18T07:49:56.806Z,18.11
2016-11-18T07:51:10.298Z,18.05
2016-11-18T07:52:23.399Z,18.13
2016-11-18T07:53:36.945Z,18.2
2016-11-18T07:54:49.496Z,18.17
2016-11-18T07:56:03.089Z,18.12
2016-11-18T07:57:16.081Z,18.15
2016-11-18T07:58:29.653Z,18.05
2016-11-18T07:59:42.108Z,17.99
2016-11-18T08:00:55.194Z,17.91
2016-11-18T08:02:08.265Z,17.93
2016-11-18T08:03:21.852Z,17.94
2016-11-18T08:04:34.948Z,17.94
2016-11-18T08:05:47.904Z,17.99
2016-11-18T08:07:01.441Z,17.88
2016-11-18T08:08:14.987Z,17.81
2016-11-18T08:09:27.983Z,17.78
2016-11-18T08:10:40.480Z,17.81
2016-11-18T08:11:53.952Z,17.68
2016-11-18T08:13:07.597Z,17.69
2016-11-18T08:14:20.670Z,17.81
2016-11-18T08:15:33.693Z,17.86
2016-11-18T08:16:46.744Z,17.9
2016-11-18T08:18:00.264Z,17.76
2016-11-18T08:19:13.867Z,17.9
2016-11-18T08:20:26.993Z,17.93
2016-11-18T08:21:40.016Z,17.88
2016-11-18T08:22:52.572Z,17.94
2016-11-18T08:24:06.194Z,17.94
2016-11-18T08:25:19.730Z,17.93
2016-11-18T08:26:33.332Z,17.69
2016-11-18T08:27:45.831Z,17.65
2016-11-18T08:28:59.376Z,17.56
2016-11-18T08:30:11.892Z,17.65
2016-11-18T08:31:24.840Z,17.62
2016-11-18T08:32:37.914Z,17.66
2016-11-18T08:33:50.982Z,17.88
2016-11-18T08:35:04.028Z,17.9
2016-11-18T08:36:17.034Z,17.91
2016-11-18T08:37:28.431Z,18.02
2016-11-18T08:38:40.936Z,18.05
2016-11-18T08:39:53.982Z,18.02
2016-11-18T08:41:38.619Z,17.91
2016-11-18T08:42:51.076Z,18.09
2016-11-18T08:44:04.584Z,18.11
2016-11-18T08:45:18.148Z,18.12
2016-11-18T08:46:31.735Z,18.11
2016-11-18T08:47:44.758Z,18.33
2016-11-18T08:48:58.296Z,18.26
2016-11-18T08:50:11.361Z,18.31
2016-11-18T08:51:24.854Z,18.11
2016-11-18T08:52:37.889Z,18.05
2016-11-18T08:53:50.853Z,18.01
2016-11-18T08:55:04.406Z,18.11
2016-11-18T08:56:17.955Z,18.06
2016-11-18T08:57:31.539Z,18.02
2016-11-18T08:58:45.051Z,18.01
2016-11-18T08:59:57.650Z,17.97
2016-11-18T09:01:10.618Z,18.03
2016-11-18T09:02:23.646Z,18.03
2016-11-18T09:03:36.653Z,18.02
2016-11-18T09:04:49.097Z,18.11
2016-11-18T09:06:01.557Z,18.03
2016-11-18T09:07:14.047Z,17.97
2016-11-18T09:08:27.093Z,17.91
2016-11-18T09:09:40.150Z,17.94
2016-11-18T09:10:53.660Z,18.09
2016-11-18T09:12:07.262Z,18.08
2016-11-18T09:13:19.721Z,17.94
2016-11-18T09:14:32.743Z,17.88
2016-11-18T09:15:45.252Z,17.93
2016-11-18T09:16:58.353Z,17.81
2016-11-18T09:18:11.327Z,17.86
2016-11-18T09:19:24.950Z,17.79
2016-11-18T09:20:38.585Z,17.81
2016-11-18T09:21:52.207Z,17.84
2016-11-18T09:23:05.253Z,17.88
2016-11-18T09:24:18.255Z,17.96
2016-11-18T09:25:31.792Z,17.96
2016-11-18T09:26:45.335Z,18.01
2016-11-18T09:27:58.877Z,17.97
2016-11-18T09:29:11.921Z,18.03
2016-11-18T09:30:25.622Z,17.99
2016-11-18T09:31:39.139Z,17.96
2016-11-18T09:32:52.107Z,17.99
2016-11-18T09:34:05.177Z,18.06
2016-11-18T09:35:18.739Z,18.05
2016-11-18T09:36:31.777Z,18.13
2016-11-18T09:38:14.889Z,17.93
2016-11-18T09:39:27.866Z,17.65
2016-11-18T09:40:41.418Z,17.38
2016-11-18T09:41:54.451Z,17.43
2016-11-18T09:43:08.006Z,17.41
2016-11-18T09:44:21.023Z,17.43
2016-11-18T09:45:34.605Z,17.53
2016-11-18T09:46:48.226Z,17.5
2016-11-18T09:48:01.746Z,17.65
2016-11-18T09:49:15.293Z,17.53
2016-11-18T09:50:27.866Z,17.68
2016-11-18T09:51:40.947Z,17.69
2016-11-18T09:52:54.130Z,17.72
2016-11-18T09:54:38.818Z,17.88
2016-11-18T09:55:51.813Z,17.9
2016-11-18T09:57:04.852Z,17.84
2016-11-18T09:58:17.341Z,17.71
2016-11-18T09:59:30.970Z,17.65
2016-11-18T10:00:43.967Z,17.62
2016-11-18T10:01:57.036Z,17.63
2016-11-18T10:03:10.014Z,17.71
2016-11-18T10:04:23.018Z,17.76
2016-11-18T10:05:35.536Z,17.86
2016-11-18T10:06:48.091Z,17.97
2016-11-18T10:08:01.097Z,17.97
2016-11-18T10:09:13.568Z,18.01
2016-11-18T10:10:26.581Z,18.03
2016-11-18T10:11:39.069Z,18.03
2016-11-18T10:12:52.613Z,17.93
2016-11-18T10:14:05.142Z,17.97
2016-11-18T10:15:17.629Z,18.03
2016-11-18T10:16:31.221Z,18.01
2016-11-18T10:17:43.705Z,18.13
2016-11-18T10:18:56.795Z,18.18
2016-11-18T10:20:09.871Z,18.18
2016-11-18T10:21:21.810Z,18.3
2016-11-18T10:22:34.819Z,18.15
2016-11-18T10:23:46.723Z,18.06
2016-11-18T10:24:59.748Z,18.01
2016-11-18T10:26:12.222Z,18.05
2016-11-18T10:27:24.218Z,17.9
2016-11-18T10:28:36.697Z,17.97
2016-11-18T10:29:49.758Z,17.91
2016-11-18T10:31:03.326Z,17.87
2016-11-18T10:32:16.817Z,17.88
2016-11-18T10:33:29.909Z,17.91
2016-11-18T10:34:42.901Z,17.99
2016-11-18T10:35:55.925Z,17.78
2016-11-18T10:37:08.380Z,17.73
2016-11-18T10:38:20.845Z,17.88
2016-11-18T10:39:34.444Z,17.88
2016-11-18T10:40:46.979Z,18.03
2016-11-18T10:42:00.566Z,18.02
2016-11-18T10:43:13.582Z,18.17
2016-11-18T10:44:26.618Z,18.18
2016-11-18T10:45:39.125Z,18.33
2016-11-18T10:46:52.131Z,18.26
2016-11-18T10:48:05.149Z,18.13
2016-11-18T10:49:48.771Z,18.06
2016-11-18T10:51:02.405Z,18.01
2016-11-18T10:52:15.434Z,18.21
2016-11-18T10:53:28.988Z,18.12
2016-11-18T10:54:41.527Z,18.13
2016-11-18T10:55:53.548Z,18.17
2016-11-18T10:57:06.032Z,18.26
2016-11-18T10:58:19.542Z,18.28
2016-11-18T10:59:32.596Z,18.17
2016-11-18T11:00:46.154Z,18.26
2016-11-18T11:01:58.160Z,18.13
2016-11-18T11:03:10.113Z,18.11
2016-11-18T11:04:23.150Z,18.13
2016-11-18T11:05:36.175Z,18.12
2016-11-18T11:06:49.731Z,18.11
2016-11-18T11:08:03.340Z,18.17
2016-11-18T11:09:15.859Z,18.12
2016-11-18T11:10:28.356Z,18.03
2016-11-18T11:11:40.866Z,17.97
2016-11-18T11:12:53.892Z,17.93
2016-11-18T11:14:07.007Z,17.87
2016-11-18T11:15:20.012Z,17.73
2016-11-18T11:16:33.003Z,17.68
2016-11-18T11:17:44.956Z,17.72
2016-11-18T11:18:57.971Z,17.79
2016-11-18T11:20:11.002Z,17.99
2016-11-18T11:21:23.479Z,18.01
2016-11-18T11:22:35.450Z,18.01
2016-11-18T11:23:48.553Z,17.96
2016-11-18T11:25:01.542Z,17.93
2016-11-18T11:26:14.134Z,18.03
2016-11-18T11:27:27.200Z,18.02
2016-11-18T11:28:39.182Z,18.02
2016-11-18T11:29:51.640Z,18.01
2016-11-18T11:31:03.038Z,17.97
2016-11-18T11:32:16.110Z,18.01
2016-11-18T11:33:59.739Z,18.17
2016-11-18T11:35:12.754Z,18.11
2016-11-18T11:36:25.257Z,18.13
2016-11-18T11:37:38.824Z,18.11
2016-11-18T11:38:51.921Z,18.11
2016-11-18T11:40:04.366Z,18.2
2016-11-18T11:41:16.903Z,18.27
2016-11-18T11:42:29.416Z,18.33
2016-11-18T11:43:41.915Z,18.26
2016-11-18T11:44:54.413Z,18.3
2016-11-18T11:46:05.829Z,18.26
2016-11-18T11:47:18.287Z,18.24
2016-11-18T11:48:30.780Z,18.42
2016-11-18T11:49:43.811Z,18.64
2016-11-18T11:50:56.892Z,18.67
2016-11-18T11:53:52.925Z,18.61
2016-11-18T11:55:05.948Z,18.66
2016-11-18T11:56:18.399Z,18.76
2016-11-18T11:57:30.868Z,18.74
2016-11-18T11:58:43.882Z,18.71
2016-11-18T11:59:56.359Z,18.63
2016-11-18T12:01:09.366Z,18.61
2016-11-18T12:02:21.363Z,18.58
2016-11-18T12:03:34.904Z,18.45
2016-11-18T12:04:46.295Z,18.45
2016-11-18T12:05:59.749Z,18.48
2016-11-18T12:07:10.636Z,18.43
2016-11-18T12:08:23.694Z,18.49
2016-11-18T12:09:36.805Z,18.56
2016-11-18T12:10:50.348Z,18.58
2016-11-18T12:12:03.349Z,18.66
2016-11-18T12:13:16.430Z,18.82
2016-11-18T12:14:29.420Z,19
2016-11-18T12:15:42.499Z,18.88
2016-11-18T12:16:55.449Z,18.74
2016-11-18T12:18:08.419Z,18.63
2016-11-18T12:19:21.995Z,18.49
2016-11-18T12:20:33.981Z,18.46
2016-11-18T12:21:46.941Z,18.45
2016-11-18T12:22:59.946Z,18.66
2016-11-18T12:24:13.000Z,18.79
2016-11-18T12:25:25.976Z,18.76
2016-11-18T12:26:38.438Z,18.75
2016-11-18T12:28:23.077Z,18.76
2016-11-18T12:29:35.587Z,18.66
2016-11-18T12:30:48.639Z,18.54
2016-11-18T12:32:01.689Z,18.61
2016-11-18T12:33:13.129Z,18.66
2016-11-18T12:34:26.152Z,18.74
2016-11-18T12:35:39.190Z,18.88
2016-11-18T12:36:51.156Z,18.85
2016-11-18T12:38:04.751Z,18.96
2016-11-18T12:39:17.287Z,19.09
2016-11-18T12:40:30.296Z,19.07
2016-11-18T12:41:43.808Z,19.04
2016-11-18T12:42:56.280Z,18.81
2016-11-18T12:44:08.747Z,18.88
2016-11-18T12:45:21.206Z,18.48
2016-11-18T12:46:34.235Z,18.3
2016-11-18T12:47:46.710Z,18.31
2016-11-18T12:48:58.135Z,18.21
2016-11-18T12:50:10.100Z,18.28
2016-11-18T12:51:23.145Z,18.21
2016-11-18T12:52:35.571Z,18.17
2016-11-18T12:53:49.194Z,18.13
2016-11-18T12:55:02.174Z,18.13
2016-11-18T12:56:14.681Z,18.11
2016-11-18T12:57:27.672Z,18.11
2016-11-18T12:58:40.139Z,18.13
2016-11-18T12:59:53.098Z,18.18
2016-11-18T13:01:06.711Z,17.97
2016-11-18T13:02:19.695Z,17.99
2016-11-18T13:03:33.217Z,18.05
2016-11-18T13:04:46.744Z,18.28
2016-11-18T13:05:59.268Z,18.45
2016-11-18T13:07:12.243Z,18.78
2016-11-18T13:08:24.688Z,18.83
2016-11-18T13:09:38.290Z,19.01
2016-11-18T13:10:50.855Z,19.12
2016-11-18T13:12:03.290Z,19.2
2016-11-18T13:13:16.296Z,19.3
2016-11-18T13:14:29.347Z,19.38
2016-11-18T13:15:42.932Z,19.27
2016-11-18T13:16:55.340Z,19.39
2016-11-18T13:18:08.931Z,19.37
2016-11-18T13:19:21.452Z,19.44
2016-11-18T13:20:34.999Z,19.34
2016-11-18T13:21:47.485Z,19.31
2016-11-18T13:22:59.460Z,19.44
2016-11-18T13:24:12.510Z,19.32
2016-11-18T13:25:24.485Z,19.42
2016-11-18T13:26:37.601Z,19.54
2016-11-18T13:27:51.182Z,19.49
2016-11-18T13:29:03.644Z,19.32
2016-11-18T13:30:17.182Z,19.2
2016-11-18T13:31:30.189Z,18.88
2016-11-18T13:32:42.143Z,18.85
2016-11-18T13:33:55.174Z,18.91
2016-11-18T13:35:07.692Z,18.94
2016-11-18T13:36:20.643Z,18.83
2016-11-18T13:37:33.184Z,18.86
2016-11-18T13:38:46.296Z,18.83
2016-11-18T13:39:58.812Z,18.91
2016-11-18T13:41:11.922Z,18.96
2016-11-18T13:42:24.930Z,18.83
2016-11-18T13:43:37.941Z,18.83
2016-11-18T13:44:50.898Z,19.09
2016-11-18T13:46:03.943Z,19.24
2016-11-18T13:47:16.460Z,19.47
2016-11-18T13:48:29.480Z,19.71
2016-11-18T13:49:42.489Z,19.77
2016-11-18T13:50:55.500Z,19.71
2016-11-18T13:52:08.018Z,19.52
2016-11-18T13:53:21.035Z,19.52
2016-11-18T13:54:34.024Z,19.37
2016-11-18T13:55:47.573Z,19.08
2016-11-18T13:57:00.064Z,19.12
2016-11-18T13:58:12.587Z,19.12
2016-11-18T13:59:25.048Z,19.24
2016-11-18T14:00:37.535Z,19.23
2016-11-18T14:01:51.078Z,19.19
2016-11-18T14:03:04.021Z,19.13
2016-11-18T14:04:15.471Z,18.89
2016-11-18T14:05:27.497Z,18.96
2016-11-18T14:06:38.944Z,18.94
2016-11-18T14:07:52.034Z,18.83
2016-11-18T14:09:05.069Z,18.76
2016-11-18T14:10:18.643Z,18.86
2016-11-18T14:11:31.721Z,19.04
2016-11-18T14:12:44.223Z,19
2016-11-18T14:13:56.700Z,18.93
2016-11-18T14:15:09.244Z,18.86
2016-11-18T14:16:22.228Z,18.76
2016-11-18T14:17:34.701Z,18.85
2016-11-18T14:18:46.618Z,18.97
2016-11-18T14:19:59.600Z,18.91
2016-11-18T14:21:13.093Z,18.7
2016-11-18T14:22:25.615Z,18.75
2016-11-18T14:23:38.115Z,18.7
2016-11-18T14:24:51.549Z,18.66
2016-11-18T14:26:05.156Z,18.71
2016-11-18T14:27:18.744Z,18.85
2016-11-18T14:28:32.318Z,18.83
2016-11-18T14:29:45.419Z,18.82
2016-11-18T14:30:58.477Z,18.78
2016-11-18T14:32:10.928Z,18.85
2016-11-18T14:33:24.495Z,18.93
2016-11-18T14:34:37.577Z,19.04
2016-11-18T14:35:51.133Z,19.07
2016-11-18T14:37:03.558Z,19.13
2016-11-18T14:38:17.111Z,19.04
2016-11-18T14:39:30.088Z,19.05
2016-11-18T14:40:43.095Z,18.98
2016-11-18T14:41:56.048Z,19.13
2016-11-18T14:43:08.529Z,19.16
2016-11-18T14:44:21.578Z,19.24
2016-11-18T14:45:34.593Z,19.27
2016-11-18T14:46:47.547Z,19.27
2016-11-18T14:48:00.042Z,19.07
2016-11-18T14:49:13.053Z,18.96
2016-11-18T14:50:26.156Z,18.79
2016-11-18T14:51:39.189Z,18.68
2016-11-18T14:52:51.613Z,18.71
2016-11-18T14:54:04.112Z,18.68
2016-11-18T14:55:16.083Z,18.63
2016-11-18T14:56:28.596Z,18.76
2016-11-18T14:57:41.594Z,18.71
2016-11-18T14:58:54.667Z,18.85
2016-11-18T15:00:08.363Z,18.91
2016-11-18T15:01:20.320Z,18.96
2016-11-18T15:02:33.313Z,18.89
2016-11-18T15:03:46.334Z,18.89
2016-11-18T15:04:59.840Z,18.93
2016-11-18T15:06:12.331Z,18.94
2016-11-18T15:07:25.880Z,18.93
2016-11-18T15:08:38.394Z,19.05
2016-11-18T15:09:51.454Z,19.19
2016-11-18T15:11:03.906Z,19.19
2016-11-18T15:12:17.496Z,19.3
2016-11-18T15:13:30.506Z,19.26
2016-11-18T15:14:42.951Z,19.27
2016-11-18T15:15:55.420Z,19.31
2016-11-18T15:17:08.463Z,19.45
2016-11-18T15:18:20.447Z,19.63
2016-11-18T15:19:33.465Z,19.7
2016-11-18T15:20:45.966Z,19.71
2016-11-18T15:21:59.057Z,19.84
2016-11-18T15:23:43.676Z,19.87
2016-11-18T15:24:56.146Z,19.68
2016-11-18T15:26:09.664Z,19.63
2016-11-18T15:27:23.220Z,19.57
2016-11-18T15:28:36.241Z,19.54
2016-11-18T15:29:48.787Z,19.23
2016-11-18T15:31:01.279Z,19.19
2016-11-18T15:32:14.287Z,19.19
2016-11-18T15:33:27.818Z,19.19
2016-11-18T15:34:40.328Z,19.17
2016-11-18T15:36:24.404Z,19.17
2016-11-18T15:37:37.922Z,19.37
2016-11-18T15:38:50.454Z,19.44
2016-11-18T15:40:03.396Z,19.47
2016-11-18T15:41:15.924Z,19.47
2016-11-18T15:42:29.480Z,19.26
2016-11-18T15:43:42.499Z,19.07
2016-11-18T15:44:54.505Z,19.13
2016-11-18T15:46:08.029Z,18.91
2016-11-18T15:47:20.467Z,18.71
2016-11-18T15:48:32.903Z,18.76
2016-11-18T15:49:44.868Z,18.82
2016-11-18T15:50:57.943Z,18.98
2016-11-18T15:52:10.381Z,19.08
2016-11-18T15:53:22.897Z,19.09
2016-11-18T15:54:35.905Z,19.23
2016-11-18T15:55:48.972Z,19.45
2016-11-18T15:57:02.043Z,19.59